Urb La Vista, Puerto Rico
Current Conditions -  °F | °C
As of 7:56 AM on Monday 22 Dec 2014 (Local Time) from TJSJ Reporting Station
Broken Clouds Broken Clouds  
Wind Chill: 78°   Ceiling: 6500
Heat Index: 80°   Visibility: 10mi
Dew Point: 71°   Wind: 0mph
Humidity: 79%   Direction: NA
Pressure: 30.05"   Gusts: NA
Location:  18.4051°N, 66.0126°W
Report Text: TJSJ 221156Z 00000KT 10SM FEW025 SCT047 BKN065 26/22 A3005 RMK AO2 SLP175 T02560217 10256 20228 53011
Loading
Personal Weather Stations






























Interactive Weather Map New forecast layout! Learn more

10-Day Weather Forecast

Advertisements
Track Severe Weather on mobile